Login

matpascal
1 activity; - Last training unit 24/06/2018
24/06/2018 Show to everybody Giro mattutino 41.31 832 02:56:19 14.06 Km\h
22/06/2018 Show to everybody Giro pomeridiano 32.03 489 02:35:10 12.38 Km\h
19/06/2018 Show to everybody Giro serale 19.81 304 00:56:08 21.17 Km\h
17/06/2018 Show to everybody Giro mattutino 42.15 852 02:17:24 18.41 Km\h
27/05/2018 Show to everybody Giro mattutino 104.86 861 06:07:54 17.1 Km\h
18/05/2018 Show to everybody Giro pomeridiano 36.23 491 01:24:45 25.65 Km\h
13/05/2018 Show to everybody Giro mattutino 51.55 1016 03:10:11 16.26 Km\h
06/05/2018 Show to everybody Giro mattutino 53.48 896 03:27:19 15.48 Km\h
29/04/2018 Show to everybody Giro mattutino 54.2 915 03:07:03 17.39 Km\h
27/04/2018 Show to everybody Giro pomeridiano 41.65 682 01:43:31 24.14 Km\h
22/04/2018 Show to everybody Giro mattutino 43.9 486 01:41:48 25.88 Km\h
08/04/2018 Show to everybody Giro mattutino 57.52 1127 03:56:45 14.58 Km\h
28/03/2018 Show to everybody Giro pomeridiano 47.07 870 01:58:17 23.88 Km\h
24/03/2018 Show to everybody Giro pomeridiano 51.04 744 02:14:20 22.8 Km\h
10/03/2018 Show to everybody Giro mattutino 55.31 1123 03:11:59 17.29 Km\h
25/02/2018 Show to everybody Giro mattutino 54.67 1322 03:35:57 15.19 Km\h
04/02/2018 Show to everybody Tivoli/san gregorio/ poli col botto. 98.66 1022 03:48:44 25.88 Km\h
28/01/2018 Show to everybody Giro mattutino 56.65 960 03:38:18 15.57 Km\h
21/01/2018 Show to everybody Giro mattutino 55.61 1208 03:37:13 15.36 Km\h
07/01/2018 Show to everybody Giro mattutino 84.17 906 03:16:34 25.69 Km\h
31/12/2017 Show to everybody Uscita di fine anno insieme a Mauro e Sante 48.07 1160 03:04:32 15.63 Km\h
26/12/2017 Show to everybody Giro mattutino 60.04 659 02:15:15 26.64 Km\h
24/12/2017 Show to everybody Giro mattutino 42.4 752 02:40:01 15.9 Km\h
17/12/2017 Show to everybody Giro mattutino 80.34 988 03:29:06 23.05 Km\h
06/12/2017 Show to everybody Giro pomeridiano 22.5 474 01:15:49 17.81 Km\h
16/04/2015 Show to everybody 16/04/15 Lazio, Italy 37.01 451 02:38:26 14.01 Km\h
15/04/2015 Show to everybody 15/04/15 Lazio, Italy 54.59 593 01:40:25 32.62 Km\h
11/04/2015 Show to everybody 11/04/15 Lazio, Italy 41.86 1150 03:39:17 11.45 Km\h
10/04/2015 Show to everybody 10/04/15 Lazio, Italy 63.82 1065 02:16:14 28.11 Km\h
03/04/2015 Show to everybody 03/04/15 Lazio, Italy 41.18 754 02:40:33 15.39 Km\h
30/03/2015 Show to everybody 30/03/15 Lazio, Italy 57.33 882 02:19:14 24.7 Km\h
29/03/2015 Show to everybody 29/03/15 Lazio, Italy 63.1 1097 04:12:50 14.98 Km\h
21/03/2015 Show to everybody 21/03/15 Lazio, Italy 59.82 765 02:11:55 27.21 Km\h
19/03/2015 Show to everybody 19/03/15 Lazio, Italy 41.47 758 01:45:00 23.69 Km\h
08/06/2014 Show to everybody 08-06-2014 68.88 2248 05:35:02 12.33 Km\h Scalpel
03/06/2014 Show to everybody 03-06-2014 41.43 697 01:44:11 23.86 Km\h Scalpel
01/06/2014 Show to everybody 01-06-2014 58.9 1552 03:59:35 14.75 Km\h Scalpel
31/05/2014 Show to everybody 31052014 39.58 1198 03:24:36 11.61 Km\h Scalpel
30/05/2014 Show to everybody 30-05-2014 35.27 445 01:22:32 25.64 Km\h Scalpel
28/05/2014 Show to everybody 28-05-2014 42.18 697 01:49:14 23.17 Km\h Scalpel
09/05/2014 Show to everybody M Gennaro 40.72 965 03:17:47 12.35 Km\h Scalpel
04/05/2014 Show to everybody 6 h imperatore 90.36 988 05:58:21 15.13 Km\h Scalpel
01/05/2014 Show to everybody passeggiata 30.84 424 02:15:59 13.61 Km\h Scalpel
29/04/2014 Show to everybody 29 apr 51.02 1121 03:20:56 15.23 Km\h Scalpel
27/04/2014 Show to everybody 27 apr 43.25 636 02:38:09 16.41 Km\h Scalpel
23/04/2014 Show to everybody 24 apr 2014 - lucretili 52.48 1027 03:27:07 15.2 Km\h Scalpel
13/04/2014 Show to everybody 13 apr 2014 - lucretili 49.07 1081 03:33:33 13.79 Km\h Scalpel
11/04/2014 Show to everybody Torretta Monte Gennaro 36.39 1222 03:19:13 10.96 Km\h Scalpel
09/04/2014 Show to everybody san polo dei cavalieri 58.91 1035 03:17:58 17.85 Km\h Scalpel
06/04/2014 Show to everybody lucretili 63.09 1622 04:23:03 14.39 Km\h Scalpel
30/03/2014 Show to everybody lucretili 96.25 1950 05:53:11 16.35 Km\h Scalpel
25/03/2014 Show to everybody sabina 42.77 868 02:36:58 16.35 Km\h Scalpel
23/03/2014 Show to everybody lucretili 17.98 204 00:58:15 18.52 Km\h Scalpel
20/03/2014 Show to everybody Monteflavio 48.47 892 02:34:04 18.88 Km\h Scalpel
18/03/2014 Show to everybody Monteflavio 45.68 880 02:37:08 17.44 Km\h Scalpel
11/03/2014 Show to everybody Giro delle grottoline 31.64 655 01:57:27 16.16 Km\h Scalpel
09/03/2014 Show to everybody Tivoli e dintorni 52.1 1456 04:47:43 10.86 Km\h Scalpel
05/03/2014 Show to everybody Monte Flavio 46.08 838 02:17:52 20.05 Km\h Scalpel
02/03/2014 Show to everybody Monte Pellecchia 49.18 1109 03:47:51 12.95 Km\h Scalpel
19/02/2014 Show to everybody Moricone 2 32 523 01:38:57 19.41 Km\h Scalpel
14/02/2014 Show to everybody Giro Prova 22.62 291 01:26:35 15.68 Km\h Scalpel
01/01/1970 Show to everybody Giro serale 0 0 0 Km\h
01/01/1970 Show to everybody Giro serale 0 0 0 Km\h
01/01/1970 Show to everybody Giro serale 0 0 0 Km\h
01/01/1970 Show to everybody Giro serale 0 0 0 Km\h
01/01/1970 Show to everybody Giro serale 0 0 0 Km\h
01/01/1970 Show to everybody Giro serale 0 0 0 Km\h
01/01/1970 Show to everybody Giro serale 0 0 0 Km\h
01/01/1970 Show to everybody Giro serale 0 0 0 Km\h
01/01/1970 Show to everybody Giro serale 0 0 0 Km\h
01/01/1970 Show to everybody Giro serale 0 0 0 Km\h
Training units 0
Kilometers 0 Km
Vertical gain 0 mt
Hours of riding 00:00:00
Average speed 0 Km/h
average HR 132
Points 156
Live Tracking »

Scalpel 108:42:40 1554.91 Km

 
If you stop following this users you will not be able to compare your trainings with his

Now you follow this users and you can compare your trainings


MTB-Forum.it | 2012-2019 Training Camp v.1.6 rev 05